Time;durP1;ratioP1;P1;durP2;ratioP2;P2;SDS_P1;SDS_P2;PMS_P1;PMS_P2;Temp;Humidity;BMP_temperature;BMP_pressure;BME280_temperature;BME280_humidity;BME280_pressure;Samples;Min_cycle;Max_cycle;Signal;HPM_P1;HPM_P2
2023/12/09 00:01:31;;;;;;;4.57;4.17;;;;;;;8.45;100.00;100105.28;5066747;28;20189;-77
2023/12/09 00:03:56;;;;;;;4.73;4.23;;;;;;;8.44;100.00;100111.28;5068795;28;20204;-78
2023/12/09 00:06:22;;;;;;;5.20;4.20;;;;;;;8.43;100.00;100112.16;5066035;28;20197;-76
2023/12/09 00:08:48;;;;;;;4.97;4.47;;;;;;;8.41;100.00;100106.97;5066755;28;20182;-77
2023/12/09 00:11:13;;;;;;;5.20;4.70;;;;;;;8.41;100.00;100111.28;5066714;28;20750;-77
2023/12/09 00:13:39;;;;;;;4.90;4.37;;;;;;;8.39;100.00;100117.31;5062860;28;20201;-76
2023/12/09 00:16:05;;;;;;;5.70;5.03;;;;;;;8.38;100.00;100115.59;5065916;28;20228;-77
2023/12/09 00:18:30;;;;;;;5.30;4.90;;;;;;;8.40;100.00;100125.88;5075711;28;20181;-77
2023/12/09 00:20:55;;;;;;;5.53;5.03;;;;;;;8.40;100.00;100131.06;5074679;28;20701;-76
2023/12/09 00:23:21;;;;;;;6.27;5.30;;;;;;;8.39;100.00;100127.63;5075878;28;20201;-77
2023/12/09 00:25:46;;;;;;;5.63;5.13;;;;;;;8.40;100.00;100120.72;5069629;28;20178;-78
2023/12/09 00:28:14;;;;;;;5.60;5.13;;;;;;;8.41;100.00;100121.59;5070359;28;20192;-77
2023/12/09 00:30:39;;;;;;;5.97;5.27;;;;;;;8.41;100.00;100122.44;5064290;28;20191;-78
2023/12/09 00:33:05;;;;;;;5.90;5.30;;;;;;;8.41;100.00;100119.03;5070628;28;20210;-78
2023/12/09 00:35:30;;;;;;;6.57;5.87;;;;;;;8.38;100.00;100123.31;5063990;28;20243;-77
2023/12/09 00:37:56;;;;;;;6.27;5.67;;;;;;;8.35;100.00;100125.91;5066683;28;20260;-77
2023/12/09 00:40:22;;;;;;;5.60;5.10;;;;;;;8.34;100.00;100126.78;5065017;28;20229;-78
2023/12/09 00:42:48;;;;;;;5.87;5.37;;;;;;;8.32;100.00;100133.66;5074541;28;20221;-76
2023/12/09 00:45:14;;;;;;;7.03;6.20;;;;;;;8.32;100.00;100132.81;5067404;28;20574;-76
2023/12/09 00:47:39;;;;;;;5.97;5.47;;;;;;;8.31;100.00;100142.28;5065259;28;20189;-77
2023/12/09 00:50:05;;;;;;;6.63;5.87;;;;;;;8.30;100.00;100143.13;5070288;28;20202;-76
2023/12/09 00:52:31;;;;;;;6.80;6.20;;;;;;;8.31;100.00;100151.72;5064707;28;20329;-77
2023/12/09 00:54:56;;;;;;;6.83;6.13;;;;;;;8.30;100.00;100152.56;5064433;28;20733;-77
2023/12/09 00:57:24;;;;;;;6.67;6.00;;;;;;;8.29;100.00;100149.16;5067945;28;20701;-76
2023/12/09 00:59:49;;;;;;;6.30;5.80;;;;;;;8.30;100.00;100148.28;5066225;28;20240;-77
2023/12/09 01:02:14;;;;;;;7.77;6.90;;;;;;;8.30;100.00;100160.31;5068447;28;20190;-77
2023/12/09 01:04:40;;;;;;;7.70;7.00;;;;;;;8.31;100.00;100168.06;5060564;28;20206;-77
2023/12/09 01:07:05;;;;;;;8.17;7.37;;;;;;;8.31;100.00;100173.22;5066753;28;20202;-77
2023/12/09 01:09:30;;;;;;;7.80;7.10;;;;;;;8.31;100.00;100168.06;5063901;28;20191;-77
2023/12/09 01:11:56;;;;;;;7.87;7.17;;;;;;;8.32;100.00;100172.31;5066473;28;20194;-77
2023/12/09 01:14:21;;;;;;;7.13;6.53;;;;;;;8.33;100.00;100170.63;5065407;28;20745;-77
2023/12/09 01:16:46;;;;;;;8.33;7.53;;;;;;;8.33;100.00;100171.47;5063253;28;20245;-77
2023/12/09 01:19:12;;;;;;;8.23;7.43;;;;;;;8.33;100.00;100170.63;5066765;28;20210;-77
2023/12/09 01:21:37;;;;;;;8.37;7.57;;;;;;;8.33;100.00;100184.34;5065283;28;20380;-77
2023/12/09 01:24:04;;;;;;;7.87;7.23;;;;;;;8.32;100.00;100185.22;5061890;28;20276;-77
2023/12/09 01:26:30;;;;;;;7.53;6.93;;;;;;;8.31;100.00;100180.06;5065487;28;20189;-77
2023/12/09 01:28:55;;;;;;;8.60;7.80;;;;;;;8.32;100.00;100184.38;5067442;28;20197;-77
2023/12/09 01:31:20;;;;;;;9.60;8.70;;;;;;;8.31;100.00;100183.53;5067990;28;20186;-77
2023/12/09 01:33:46;;;;;;;9.17;8.37;;;;;;;8.31;100.00;100191.25;5065414;28;20873;-77
2023/12/09 01:36:11;;;;;;;9.50;8.70;;;;;;;8.30;100.00;100192.13;5066712;28;20285;-77
2023/12/09 01:38:36;;;;;;;12.23;10.93;;;;;;;8.26;100.00;100197.25;5064580;28;20659;-77
2023/12/09 01:41:02;;;;;;;11.53;10.60;;;;;;;8.23;100.00;100206.75;5064842;28;20221;-77
2023/12/09 01:43:27;;;;;;;12.33;11.13;;;;;;;8.21;100.00;100197.25;5062095;28;20240;-77
2023/12/09 01:45:56;;;;;;;11.87;10.70;;;;;;;8.18;100.00;100195.56;5060760;28;20194;-77
2023/12/09 01:48:22;;;;;;;13.17;11.87;;;;;;;8.16;100.00;100191.28;5060088;28;20805;-77
2023/12/09 01:50:48;;;;;;;13.10;11.90;;;;;;;8.16;100.00;100199.84;5062939;28;20182;-76
2023/12/09 01:53:14;;;;;;;12.77;11.57;;;;;;;8.14;100.00;100195.56;5060847;28;20213;-77
2023/12/09 01:55:41;;;;;;;13.67;12.37;;;;;;;8.13;100.00;100199.00;5060093;28;20190;-77
2023/12/09 01:58:06;;;;;;;15.20;13.80;;;;;;;8.08;100.00;100186.97;5058645;28;20192;-77
2023/12/09 02:00:32;;;;;;;14.90;13.60;;;;;;;8.06;100.00;100187.84;5054757;28;20750;-77
2023/12/09 02:02:58;;;;;;;14.33;13.13;;;;;;;8.04;100.00;100190.41;5059025;28;20217;-77
2023/12/09 02:05:25;;;;;;;15.30;14.00;;;;;;;8.06;100.00;100190.41;5054491;28;20208;-76
2023/12/09 02:07:50;;;;;;;14.80;13.50;;;;;;;8.07;100.00;100189.56;5060307;28;20205;-76
2023/12/09 02:10:16;;;;;;;15.00;13.73;;;;;;;8.09;100.00;100198.16;5059844;28;20251;-77
2023/12/09 02:12:52;;;;;;;14.57;13.37;;;;;;;8.09;100.00;100195.56;5058095;28;20650;-77
2023/12/09 02:15:41;;;;;;;14.10;12.80;;;;;;;8.08;100.00;100194.69;5058299;28;20289;-77
2023/12/09 02:18:07;;;;;;;13.63;12.43;;;;;;;8.07;100.00;100195.56;5058303;28;20208;-77
2023/12/09 02:20:33;;;;;;;13.33;12.23;;;;;;;8.07;100.00;100190.41;5059608;28;20218;-77
2023/12/09 02:23:08;;;;;;;13.37;12.20;;;;;;;8.08;100.00;100180.97;5059053;28;20214;-76
2023/12/09 02:25:34;;;;;;;12.60;11.50;;;;;;;8.08;100.00;100184.38;5058213;28;20588;-77
2023/12/09 02:28:17;;;;;;;13.20;12.10;;;;;;;8.06;100.00;100180.94;5056076;28;20246;-76
2023/12/09 02:31:04;;;;;;;12.37;11.27;;;;;;;8.04;100.00;100168.94;5056904;28;20584;-77
2023/12/09 02:33:31;;;;;;;11.80;10.70;;;;;;;8.02;100.00;100160.34;5057322;28;20589;-74
2023/12/09 02:35:59;;;;;;;11.93;10.93;;;;;;;7.97;100.00;100151.75;5053199;28;20787;-76
2023/12/09 02:38:27;;;;;;;11.93;10.93;;;;;;;7.90;100.00;100148.31;5058108;28;20674;-77
2023/12/09 02:40:53;;;;;;;11.70;10.60;;;;;;;7.83;100.00;100141.44;5055873;28;20214;-78
2023/12/09 02:43:18;;;;;;;11.70;10.70;;;;;;;7.75;100.00;100128.56;5058651;28;20293;-76
2023/12/09 02:45:48;;;;;;;13.23;11.93;;;;;;;7.68;100.00;100125.13;5058539;28;20191;-77
2023/12/09 02:48:13;;;;;;;11.83;10.73;;;;;;;7.59;100.00;100125.13;5059175;28;20182;-76
2023/12/09 02:50:39;;;;;;;12.27;11.20;;;;;;;7.51;100.00;100117.38;5066749;28;20683;-76
2023/12/09 02:53:04;;;;;;;14.27;12.90;;;;;;;7.44;100.00;100113.94;5058506;28;20670;-77
2023/12/09 02:55:30;;;;;;;13.03;11.90;;;;;;;7.39;100.00;100125.09;5056621;28;20185;-76
2023/12/09 02:57:55;;;;;;;13.33;12.03;;;;;;;7.33;100.00;100116.50;5057378;28;20207;-77
2023/12/09 03:00:20;;;;;;;12.90;11.80;;;;;;;7.32;100.00;100111.34;5063634;28;20302;-77
2023/12/09 03:02:46;;;;;;;12.90;11.80;;;;;;;7.30;100.00;100105.34;5059012;28;20292;-77
2023/12/09 03:05:11;;;;;;;12.20;11.20;;;;;;;7.28;100.00;100110.50;5059326;28;20201;-75
2023/12/09 03:07:36;;;;;;;12.03;10.97;;;;;;;7.29;100.00;100111.34;5053280;28;20206;-76
2023/12/09 03:10:02;;;;;;;12.73;11.63;;;;;;;7.28;100.00;100113.06;5063467;28;20191;-76
2023/12/09 03:12:27;;;;;;;13.00;11.90;;;;;;;7.27;100.00;100108.78;5062952;28;20199;-77
2023/12/09 03:14:53;;;;;;;12.43;11.33;;;;;;;7.27;100.00;100101.06;5062137;28;20258;-77
2023/12/09 03:17:18;;;;;;;13.37;12.00;;;;;;;7.27;100.00;100095.03;5057113;28;20185;-76
2023/12/09 03:19:44;;;;;;;12.73;11.63;;;;;;;7.30;100.00;100085.63;5055762;28;20211;-76
2023/12/09 03:22:09;;;;;;;12.20;11.20;;;;;;;7.35;100.00;100080.47;5057056;28;20229;-77
2023/12/09 03:24:34;;;;;;;12.17;11.17;;;;;;;7.37;100.00;100088.19;5061996;28;20687;-77
2023/12/09 03:27:00;;;;;;;11.90;10.90;;;;;;;7.38;100.00;100089.91;5062612;28;20800;-77
2023/12/09 03:29:25;;;;;;;12.17;11.10;;;;;;;7.38;100.00;100095.94;5060921;28;20180;-76
2023/12/09 03:31:50;;;;;;;12.77;11.73;;;;;;;7.38;100.00;100101.09;5057736;28;20216;-77
2023/12/09 03:34:16;;;;;;;12.87;11.77;;;;;;;7.41;100.00;100105.38;5063679;28;20223;-76
2023/12/09 03:36:42;;;;;;;13.03;11.93;;;;;;;7.42;100.00;100105.34;5065991;28;20197;-77
2023/12/09 03:39:07;;;;;;;12.43;11.33;;;;;;;7.45;100.00;100110.50;5059678;28;20201;-77
2023/12/09 03:41:33;;;;;;;12.30;11.30;;;;;;;7.47;100.00;100111.38;5059280;28;20204;-77
2023/12/09 03:43:59;;;;;;;11.73;10.73;;;;;;;7.49;100.00;100103.66;5059085;28;20213;-77
2023/12/09 03:46:24;;;;;;;12.20;11.13;;;;;;;7.52;100.00;100101.06;5058155;28;20189;-77
2023/12/09 03:48:50;;;;;;;13.33;12.23;;;;;;;7.52;100.00;100106.22;5053779;28;20192;-77
2023/12/09 03:51:15;;;;;;;13.93;12.83;;;;;;;7.54;100.00;100104.50;5060093;28;20677;-74
2023/12/09 03:53:41;;;;;;;12.63;11.53;;;;;;;7.56;100.00;100109.69;5060404;28;20291;-77
2023/12/09 03:56:08;;;;;;;12.27;11.17;;;;;;;7.55;100.00;100101.09;5058682;28;20607;-77
2023/12/09 03:58:33;;;;;;;12.53;11.53;;;;;;;7.57;100.00;100101.06;5060043;28;20205;-77
2023/12/09 04:00:58;;;;;;;11.73;10.73;;;;;;;7.57;100.00;100104.53;5057601;28;20221;-76
2023/12/09 04:03:24;;;;;;;11.07;10.17;;;;;;;7.58;100.00;100097.63;5058507;28;20201;-76
2023/12/09 04:05:50;;;;;;;11.93;10.97;;;;;;;7.59;100.00;100102.81;5058149;28;20197;-77
2023/12/09 04:08:15;;;;;;;14.33;13.17;;;;;;;7.62;100.00;100114.81;5060295;28;20181;-76
2023/12/09 04:10:40;;;;;;;13.30;12.10;;;;;;;7.65;100.00;100119.09;5056759;28;20193;-77
2023/12/09 04:13:06;;;;;;;11.47;10.47;;;;;;;7.68;100.00;100111.38;5058617;28;20213;-77
2023/12/09 04:15:31;;;;;;;11.33;10.37;;;;;;;7.68;100.00;100101.09;5056994;28;20198;-76
2023/12/09 04:17:56;;;;;;;10.50;9.67;;;;;;;7.69;100.00;100105.38;5054843;28;20741;-76
2023/12/09 04:20:22;;;;;;;10.23;9.33;;;;;;;7.70;100.00;100099.38;5058040;28;20210;-77
2023/12/09 04:22:48;;;;;;;10.90;10.00;;;;;;;7.71;100.00;100094.25;5056630;28;20312;-77
2023/12/09 04:25:13;;;;;;;10.50;9.60;;;;;;;7.72;100.00;100097.66;5058425;28;20273;-77
2023/12/09 04:27:39;;;;;;;9.53;8.73;;;;;;;7.74;100.00;100096.78;5059484;28;20189;-76
2023/12/09 04:30:05;;;;;;;10.20;9.30;;;;;;;7.74;100.00;100101.09;5061759;28;20269;-77
2023/12/09 04:32:31;;;;;;;9.57;8.80;;;;;;;7.73;100.00;100087.34;5061665;28;20239;-77
2023/12/09 04:34:57;;;;;;;9.43;8.60;;;;;;;7.74;100.00;100090.78;5067452;28;20588;-77
2023/12/09 04:37:22;;;;;;;9.07;8.33;;;;;;;7.74;100.00;100095.94;5059044;28;22239;-76
2023/12/09 04:39:48;;;;;;;8.93;8.17;;;;;;;7.72;100.00;100089.94;5061544;28;20247;-77
2023/12/09 04:42:13;;;;;;;7.87;7.23;;;;;;;7.72;100.00;100105.38;5065382;28;20216;-77
2023/12/09 04:44:39;;;;;;;8.63;7.77;;;;;;;7.70;100.00;100105.41;5061832;28;20730;-77
2023/12/09 04:47:04;;;;;;;8.17;7.53;;;;;;;7.70;100.00;100104.53;5058339;28;20185;-76
2023/12/09 04:49:30;;;;;;;7.93;7.17;;;;;;;7.69;100.00;100095.06;5060170;28;20197;-78
2023/12/09 04:51:55;;;;;;;7.87;7.17;;;;;;;7.69;100.00;100102.81;5057961;28;20190;-75
2023/12/09 04:54:20;;;;;;;8.03;7.37;;;;;;;7.70;100.00;100113.13;5059945;28;20216;-75
2023/12/09 04:56:46;;;;;;;7.13;6.53;;;;;;;7.71;100.00;100103.66;5062545;28;20767;-77
2023/12/09 04:59:11;;;;;;;7.83;7.20;;;;;;;7.70;100.00;100107.97;5060739;28;20670;-76
2023/12/09 05:01:36;;;;;;;7.80;7.00;;;;;;;7.71;100.00;100107.13;5060198;28;20189;-78
2023/12/09 05:04:02;;;;;;;7.60;6.80;;;;;;;7.72;100.00;100102.81;5060253;28;20987;-75
2023/12/09 05:06:27;;;;;;;7.07;6.47;;;;;;;7.71;100.00;100101.97;5059689;28;20200;-77
2023/12/09 05:08:53;;;;;;;7.43;6.73;;;;;;;7.71;100.00;100099.38;5063092;28;20186;-75
2023/12/09 05:11:19;;;;;;;6.80;6.20;;;;;;;7.72;100.00;100103.66;5062964;28;21040;-76
2023/12/09 05:13:44;;;;;;;7.00;6.30;;;;;;;7.73;100.00;100096.78;5064136;28;20212;-77
2023/12/09 05:16:09;;;;;;;6.70;6.10;;;;;;;7.72;100.00;100098.50;5062737;28;20566;-76
2023/12/09 05:18:34;;;;;;;6.67;6.13;;;;;;;7.73;100.00;100094.22;5061475;28;20511;-76
2023/12/09 05:21:00;;;;;;;7.37;6.57;;;;;;;7.69;100.00;100093.38;5061942;28;20217;-77
2023/12/09 05:23:25;;;;;;;10.23;9.33;;;;;;;7.66;100.00;100087.34;5056536;28;20212;-77
2023/12/09 05:25:51;;;;;;;9.07;8.37;;;;;;;7.67;100.00;100083.91;5063526;28;20624;-77
2023/12/09 05:28:17;;;;;;;8.90;8.00;;;;;;;7.65;100.00;100089.06;5057965;28;20663;-77
2023/12/09 05:30:43;;;;;;;8.93;8.13;;;;;;;7.60;100.00;100077.91;5061963;28;20201;-77
2023/12/09 05:33:08;;;;;;;10.40;9.37;;;;;;;7.59;100.00;100086.47;5056121;28;20267;-76
2023/12/09 05:35:34;;;;;;;9.77;8.87;;;;;;;7.57;100.00;100071.03;5056466;28;20211;-76
2023/12/09 05:38:00;;;;;;;10.80;9.90;;;;;;;7.55;100.00;100064.19;5056250;28;20183;-76
2023/12/09 05:40:25;;;;;;;10.67;9.57;;;;;;;7.52;100.00;100062.44;5058288;28;20212;-76
2023/12/09 05:42:50;;;;;;;13.07;11.77;;;;;;;7.51;100.00;100063.31;5057426;28;20240;-77
2023/12/09 05:45:16;;;;;;;16.40;14.80;;;;;;;7.50;100.00;100061.59;5056083;28;20217;-76
2023/12/09 05:47:41;;;;;;;17.30;15.70;;;;;;;7.51;100.00;100055.59;5056964;28;20218;-77
2023/12/09 05:50:08;;;;;;;15.80;14.27;;;;;;;7.49;100.00;100057.28;5057610;28;20191;-77
2023/12/09 05:52:33;;;;;;;14.20;12.90;;;;;;;7.49;100.00;100052.16;5058360;28;20240;-77
2023/12/09 05:54:59;;;;;;;12.47;11.23;;;;;;;7.51;100.00;100054.75;5057980;28;20227;-77
2023/12/09 05:57:24;;;;;;;13.40;9.20;;;;;;;7.52;100.00;100047.00;5060478;28;20186;-76
2023/12/09 05:59:50;;;;;;;9.53;8.57;;;;;;;7.55;100.00;100054.72;5058461;28;20220;-77
2023/12/09 06:02:15;;;;;;;7.97;7.27;;;;;;;7.53;100.00;100045.31;5057178;28;20577;-76
2023/12/09 06:04:40;;;;;;;7.23;6.60;;;;;;;7.54;100.00;100045.28;5058005;28;20193;-76
2023/12/09 06:07:06;;;;;;;6.70;6.10;;;;;;;7.55;100.00;100041.00;5059921;28;20248;-76
2023/12/09 06:09:31;;;;;;;7.43;6.73;;;;;;;7.55;100.00;100049.56;5057399;28;20550;-77
2023/12/09 06:11:56;;;;;;;9.27;8.43;;;;;;;7.56;100.00;100047.88;5058369;28;20308;-76
2023/12/09 06:14:21;;;;;;;9.37;8.37;;;;;;;7.53;100.00;100033.28;5056446;28;20716;-77
2023/12/09 06:16:47;;;;;;;8.63;7.73;;;;;;;7.51;100.00;100022.09;5058255;28;20187;-76
2023/12/09 06:19:13;;;;;;;7.73;7.03;;;;;;;7.50;100.00;100027.28;5058487;28;20187;-76
2023/12/09 06:21:38;;;;;;;8.53;7.77;;;;;;;7.48;100.00;100028.13;5050938;28;20193;-76
2023/12/09 06:24:04;;;;;;;8.70;7.90;;;;;;;7.48;100.00;100022.13;5054074;28;20226;-77
2023/12/09 06:26:29;;;;;;;7.97;7.27;;;;;;;7.46;100.00;100016.97;5062014;28;20185;-76
2023/12/09 06:28:54;;;;;;;7.77;7.07;;;;;;;7.47;100.00;100002.38;5056599;28;20190;-76
2023/12/09 06:31:19;;;;;;;8.33;7.53;;;;;;;7.44;100.00;100000.66;5055542;28;20197;-76
2023/12/09 06:33:45;;;;;;;7.63;6.93;;;;;;;7.42;100.00;99993.81;5061220;28;20213;-76
2023/12/09 06:36:10;;;;;;;7.93;6.53;;;;;;;7.42;100.00;99994.66;5060294;28;20697;-76
2023/12/09 06:38:40;;;;;;;6.70;5.93;;;;;;;7.42;100.00;100007.53;5063837;28;20624;-75
2023/12/09 06:41:06;;;;;;;7.63;6.50;;;;;;;7.43;100.00;100008.41;5057550;28;20216;-76
2023/12/09 06:43:31;;;;;;;6.90;5.73;;;;;;;7.45;100.00;100011.81;5056833;28;20250;-77
2023/12/09 06:45:58;;;;;;;6.87;5.60;;;;;;;7.47;100.00;100010.13;5055849;28;20186;-77
2023/12/09 06:48:24;;;;;;;6.53;5.93;;;;;;;7.50;100.00;100004.94;5058883;28;20268;-77
2023/12/09 06:50:49;;;;;;;5.73;5.23;;;;;;;7.50;100.00;100002.38;5060046;28;20313;-76
2023/12/09 06:53:14;;;;;;;6.07;5.20;;;;;;;7.50;100.00;99999.78;5059645;28;20699;-76
2023/12/09 06:55:40;;;;;;;5.80;5.30;;;;;;;7.50;100.00;99994.63;5054720;28;20693;-76
2023/12/09 06:58:05;;;;;;;6.00;5.40;;;;;;;7.52;100.00;99992.94;5059481;28;20264;-77
2023/12/09 07:00:31;;;;;;;6.17;5.20;;;;;;;7.52;100.00;99980.03;5059355;28;20298;-75
2023/12/09 07:02:56;;;;;;;6.30;5.00;;;;;;;7.52;100.00;99982.63;5058182;28;20613;-76
2023/12/09 07:05:22;;;;;;;6.17;4.90;;;;;;;7.52;100.00;99982.63;5056111;28;20199;-77
2023/12/09 07:07:50;;;;;;;4.80;4.33;;;;;;;7.53;100.00;99991.22;5061491;28;20193;-77
2023/12/09 07:10:16;;;;;;;5.67;4.17;;;;;;;7.56;100.00;99996.38;5057980;28;20668;-75
2023/12/09 07:12:43;;;;;;;4.43;4.03;;;;;;;7.57;100.00;99995.50;5057637;28;20208;-77
2023/12/09 07:15:08;;;;;;;4.73;3.73;;;;;;;7.58;100.00;99990.34;5057953;28;20352;-76
2023/12/09 07:17:34;;;;;;;4.83;3.80;;;;;;;7.60;100.00;99995.50;5060584;28;20494;-76
2023/12/09 07:19:59;;;;;;;3.67;3.27;;;;;;;7.63;100.00;100000.63;5058255;28;20237;-76
2023/12/09 07:22:25;;;;;;;4.17;3.50;;;;;;;7.63;100.00;99998.94;5063068;28;20200;-77
2023/12/09 07:24:50;;;;;;;4.70;3.37;;;;;;;7.65;100.00;99998.94;5056078;28;20182;-76
2023/12/09 07:27:15;;;;;;;5.00;3.53;;;;;;;7.65;100.00;99993.78;5059119;28;20189;-75
2023/12/09 07:29:41;;;;;;;4.40;3.43;;;;;;;7.64;100.00;99986.91;5057611;28;20305;-77
2023/12/09 07:32:06;;;;;;;6.53;3.60;;;;;;;7.62;100.00;99992.06;5060671;28;20784;-77
2023/12/09 07:34:31;;;;;;;5.17;3.13;;;;;;;7.62;100.00;99996.34;5059161;28;20322;-76
2023/12/09 07:36:57;;;;;;;3.33;2.50;;;;;;;7.63;100.00;100000.63;5056857;28;20600;-76
2023/12/09 07:39:23;;;;;;;5.47;2.53;;;;;;;7.63;100.00;100006.66;5061132;28;20362;-76
2023/12/09 07:41:51;;;;;;;4.07;2.63;;;;;;;7.65;100.00;100014.38;5054484;28;20609;-76
2023/12/09 07:44:20;;;;;;;4.93;2.50;;;;;;;7.66;100.00;100010.06;5057312;28;20213;-77
2023/12/09 07:46:46;;;;;;;2.93;2.63;;;;;;;7.66;100.00;100005.78;5061655;28;20193;-77
2023/12/09 07:49:12;;;;;;;4.20;2.20;;;;;;;7.66;100.00;100008.38;5055906;28;20282;-76
2023/12/09 07:51:37;;;;;;;4.40;2.40;;;;;;;7.66;100.00;99999.78;5059600;28;20189;-76
2023/12/09 07:54:03;;;;;;;4.10;2.27;;;;;;;7.63;100.00;99998.94;5051538;28;20215;-76
2023/12/09 07:56:28;;;;;;;3.77;2.53;;;;;;;7.62;100.00;99993.78;5055495;28;20221;-76
2023/12/09 07:58:53;;;;;;;3.47;2.47;;;;;;;7.61;100.00;99992.06;5056546;28;20598;-77
2023/12/09 08:01:19;;;;;;;2.97;2.37;;;;;;;7.59;100.00;99993.78;5056824;28;20212;-76
2023/12/09 08:03:45;;;;;;;4.00;2.60;;;;;;;7.58;100.00;99995.50;5057331;28;20255;-75
2023/12/09 08:06:11;;;;;;;4.90;3.20;;;;;;;7.61;100.00;99992.06;5059053;28;20199;-77
2023/12/09 08:08:37;;;;;;;6.83;3.20;;;;;;;7.67;100.00;99996.34;5059099;28;20186;-76
2023/12/09 08:11:03;;;;;;;3.50;2.57;;;;;;;7.75;100.00;99986.91;5055955;28;20201;-75
2023/12/09 08:13:28;;;;;;;3.90;3.40;;;;;;;7.86;100.00;99981.72;5052581;28;20298;-76
2023/12/09 08:15:54;;;;;;;5.77;3.77;;;;;;;7.92;100.00;99972.25;5054445;28;20221;-76
2023/12/09 08:18:19;;;;;;;6.97;3.50;;;;;;;7.96;100.00;99962.78;5063309;28;20219;-76
2023/12/09 08:20:45;;;;;;;5.67;3.10;;;;;;;7.98;100.00;99967.91;5061480;28;20205;-77
2023/12/09 08:23:11;;;;;;;5.10;3.13;;;;;;;7.98;100.00;99963.63;5063556;28;20256;-77
2023/12/09 08:25:36;;;;;;;3.93;2.70;;;;;;;8.01;100.00;99970.50;5069721;28;20189;-77
2023/12/09 08:28:01;;;;;;;4.63;3.17;;;;;;;8.07;100.00;99973.06;5062422;28;20319;-77
2023/12/09 08:30:27;;;;;;;5.70;3.30;;;;;;;8.09;100.00;99961.03;5060939;28;21327;-76
2023/12/09 08:32:52;;;;;;;6.50;2.93;;;;;;;8.10;100.00;99962.72;5063264;28;20220;-76
2023/12/09 08:35:17;;;;;;;4.13;2.93;;;;;;;8.09;100.00;99972.19;5062201;28;20718;-77
2023/12/09 08:37:42;;;;;;;3.43;2.30;;;;;;;8.15;100.00;99962.72;5062061;28;20193;-76
2023/12/09 08:40:11;;;;;;;3.33;2.60;;;;;;;8.19;100.00;99959.25;5057625;28;20282;-74
2023/12/09 08:42:41;;;;;;;4.50;3.27;;;;;;;8.23;100.00;99954.09;5056657;28;20208;-77
2023/12/09 08:45:08;;;;;;;3.30;2.80;;;;;;;8.27;100.00;99948.91;5048476;28;20202;-76
2023/12/09 08:47:34;;;;;;;5.07;3.03;;;;;;;8.32;100.00;99936.84;5051439;28;20243;-77
2023/12/09 08:49:59;;;;;;;6.40;3.10;;;;;;;8.39;100.00;99931.66;5051544;28;20222;-77
2023/12/09 08:52:24;;;;;;;5.03;3.07;;;;;;;8.49;100.00;99935.06;5051322;28;20201;-76
2023/12/09 08:54:50;;;;;;;4.73;3.00;;;;;;;8.60;100.00;99926.38;5056899;28;20201;-77
2023/12/09 08:57:15;;;;;;;5.33;2.70;;;;;;;8.67;100.00;99920.34;5062927;28;20225;-76
2023/12/09 08:59:40;;;;;;;5.57;3.03;;;;;;;8.71;100.00;99934.91;5047505;28;20226;-77
2023/12/09 09:02:06;;;;;;;2.50;2.30;;;;;;;8.74;100.00;99937.47;5061805;28;20200;-76
2023/12/09 09:04:32;;;;;;;5.30;2.33;;;;;;;8.76;100.00;99937.47;5058572;28;20685;-76
2023/12/09 09:06:57;;;;;;;3.30;2.10;;;;;;;8.79;100.00;99924.53;5055390;28;20370;-78
2023/12/09 09:09:22;;;;;;;3.97;2.43;;;;;;;8.83;100.00;99913.31;5058268;28;20194;-77
2023/12/09 09:11:48;;;;;;;2.97;2.27;;;;;;;8.87;100.00;99920.19;5057902;28;20299;-74
2023/12/09 09:14:13;;;;;;;3.83;2.60;;;;;;;8.91;100.00;99901.25;5059233;28;20214;-76
2023/12/09 09:16:38;;;;;;;3.87;2.50;;;;;;;8.95;100.00;99900.31;5055325;28;20301;-77
2023/12/09 09:19:05;;;;;;;4.13;2.33;;;;;;;9.00;100.00;99897.69;5058711;28;20276;-75
2023/12/09 09:21:30;;;;;;;4.73;2.50;;;;;;;9.03;100.00;99883.94;5054099;28;20217;-76
2023/12/09 09:23:55;;;;;;;3.53;2.00;;;;;;;9.07;100.00;99888.19;5058139;28;20244;-77
2023/12/09 09:26:21;;;;;;;2.70;2.17;;;;;;;9.10;100.00;99888.16;5056502;28;20312;-77
2023/12/09 09:28:47;;;;;;;3.00;1.90;;;;;;;9.16;100.00;99877.78;5061867;28;20218;-76
2023/12/09 09:31:13;;;;;;;2.83;2.20;;;;;;;9.24;100.00;99881.13;5059257;28;20650;-76
2023/12/09 09:33:38;;;;;;;3.47;2.47;;;;;;;9.33;100.00;99880.16;5059516;28;20206;-76
2023/12/09 09:36:03;;;;;;;3.43;2.47;;;;;;;9.39;100.00;99877.53;5056336;28;20704;-76
2023/12/09 09:38:29;;;;;;;2.97;2.53;;;;;;;9.46;100.00;99868.84;5061655;28;20181;-76
2023/12/09 09:40:55;;;;;;;3.93;2.30;;;;;;;9.54;100.00;99868.75;5058648;28;20304;-77
2023/12/09 09:43:24;;;;;;;4.27;2.60;;;;;;;9.60;100.00;99868.69;5056761;28;20201;-77
2023/12/09 09:45:53;;;;;;;2.40;2.20;;;;;;;9.67;100.00;99866.88;5054837;28;20187;-76
2023/12/09 09:48:23;;;;;;;3.20;2.60;;;;;;;9.72;100.00;99864.25;5055404;28;20182;-76
2023/12/09 09:50:52;;;;;;;3.30;2.70;;;;;;;9.74;100.00;99867.66;5056842;28;20191;-77
2023/12/09 09:53:31;;;;;;;3.37;2.57;;;;;;;9.77;100.00;99877.97;5051136;28;20229;-75
2023/12/09 09:55:58;;;;;;;2.90;2.70;;;;;;;9.78;100.00;99871.94;5059611;28;20267;-76
2023/12/09 09:58:23;;;;;;;3.90;2.60;;;;;;;9.79;100.00;99857.25;5055659;28;20235;-76
2023/12/09 10:00:50;;;;;;;4.43;3.00;;;;;;;9.81;100.00;99846.06;5057023;28;20205;-76
2023/12/09 10:03:15;;;;;;;5.00;3.57;;;;;;;9.83;100.00;99827.94;5058452;28;20238;-74
2023/12/09 10:05:41;;;;;;;4.17;3.40;;;;;;;9.81;100.00;99829.69;5056904;28;20190;-76
2023/12/09 10:08:06;;;;;;;3.70;3.00;;;;;;;9.81;100.00;99848.63;5059616;28;20208;-77
2023/12/09 10:10:33;;;;;;;3.30;2.93;;;;;;;9.85;100.00;99829.59;5061157;28;20182;-77
2023/12/09 10:12:59;;;;;;;3.60;3.03;;;;;;;9.91;100.00;99821.78;5057330;28;20214;-76
2023/12/09 10:15:24;;;;;;;5.93;3.40;;;;;;;9.96;100.00;99815.72;5059666;28;20183;-77
2023/12/09 10:17:49;;;;;;;3.97;3.07;;;;;;;10.00;100.00;99814.75;5061899;28;20193;-76
2023/12/09 10:20:15;;;;;;;3.90;2.93;;;;;;;10.02;100.00;99806.13;5057138;28;20292;-76
2023/12/09 10:22:45;;;;;;;3.10;2.43;;;;;;;10.06;100.00;99796.59;5059395;28;20235;-75
2023/12/09 10:25:21;;;;;;;2.73;2.53;;;;;;;10.07;100.00;99804.31;5058192;28;20584;-76
2023/12/09 10:27:46;;;;;;;5.00;2.87;;;;;;;10.07;100.00;99793.97;5058346;28;20657;-77
2023/12/09 10:30:12;;;;;;;3.20;2.40;;;;;;;10.09;100.00;99796.56;5053985;28;20210;-76
2023/12/09 10:32:37;;;;;;;3.20;2.77;;;;;;;10.11;100.00;99794.81;5055179;28;20538;-76
2023/12/09 10:35:04;;;;;;;2.57;2.20;;;;;;;10.16;100.00;99792.13;5056729;28;20192;-76
2023/12/09 10:37:30;;;;;;;2.53;2.30;;;;;;;10.22;100.00;99794.63;5058115;28;21011;-76
2023/12/09 10:39:56;;;;;;;4.47;2.80;;;;;;;10.26;100.00;99783.34;5050652;28;20206;-76
2023/12/09 10:42:23;;;;;;;3.63;2.30;;;;;;;10.31;100.00;99778.09;5052477;28;20582;-77
2023/12/09 10:44:48;;;;;;;2.40;2.20;;;;;;;10.32;100.00;99775.50;5052417;28;20248;-77
2023/12/09 10:47:13;;;;;;;2.60;2.30;;;;;;;10.29;100.00;99759.16;5054141;28;20656;-76
2023/12/09 10:49:38;;;;;;;3.00;2.10;;;;;;;10.26;100.00;99754.91;5060774;28;20192;-77
2023/12/09 10:52:04;;;;;;;2.50;2.10;;;;;;;10.22;100.00;99736.00;5058833;28;20198;-76
2023/12/09 10:54:30;;;;;;;2.23;1.70;;;;;;;10.18;100.00;99724.00;5053580;28;20603;-77
2023/12/09 10:56:55;;;;;;;2.07;1.87;;;;;;;10.14;100.00;99724.91;5061150;28;20261;-75
2023/12/09 10:59:20;;;;;;;1.57;1.47;;;;;;;10.13;100.00;99715.47;5054867;28;20229;-77
2023/12/09 11:01:47;;;;;;;2.00;1.33;;;;;;;10.10;100.00;99700.00;5057031;28;20190;-77
2023/12/09 11:04:13;;;;;;;2.03;1.30;;;;;;;10.08;100.00;99683.66;5051677;28;20211;-76
2023/12/09 11:06:40;;;;;;;2.50;1.47;;;;;;;10.06;100.00;99670.75;5050850;28;20205;-76
2023/12/09 11:09:07;;;;;;;2.13;1.30;;;;;;;10.07;100.00;99654.38;5052732;28;20658;-77
2023/12/09 11:11:33;;;;;;;1.97;1.50;;;;;;;10.05;100.00;99648.38;5059923;28;20662;-76
2023/12/09 11:13:58;;;;;;;2.53;1.60;;;;;;;10.08;100.00;99644.88;5054823;28;20271;-77
2023/12/09 11:16:27;;;;;;;2.00;1.27;;;;;;;10.13;100.00;99649.97;5051822;28;20734;-75
2023/12/09 11:18:57;;;;;;;2.47;1.50;;;;;;;10.17;100.00;99630.94;5053340;28;21104;-77